Time;durP1;ratioP1;P1;durP2;ratioP2;P2;SDS_P1;SDS_P2;PMS_P1;PMS_P2;Temp;Humidity;BMP_temperature;BMP_pressure;BME280_temperature;BME280_humidity;BME280_pressure;Samples;Min_cycle;Max_cycle;Signal;HPM_P1;HPM_P2
2024/01/08 00:00:33;;;;;;;4.37;2.70;;;3.60;67.80;;;;;;2509638;55;20949;-67
2024/01/08 00:03:00;;;;;;;5.70;2.95;;;3.60;67.90;;;;;;2283232;55;21041;-68
2024/01/08 00:05:27;;;;;;;5.10;2.90;;;3.60;67.90;;;;;;2513587;53;21006;-67
2024/01/08 00:07:54;;;;;;;5.35;3.00;;;3.60;68.00;;;;;;2509662;54;21000;-66
2024/01/08 00:10:20;;;;;;;5.28;2.90;;;3.60;67.90;;;;;;2277478;55;21531;-67
2024/01/08 00:12:47;;;;;;;5.97;2.78;;;3.50;67.80;;;;;;2509714;54;20952;-67
2024/01/08 00:15:13;;;;;;;5.20;3.22;;;3.50;67.90;;;;;;2277509;56;21080;-67
2024/01/08 00:17:40;;;;;;;5.62;2.85;;;3.50;68.00;;;;;;2278151;55;21012;-67
2024/01/08 00:20:09;;;;;;;4.62;3.00;;;3.50;67.80;;;;;;2277598;55;20968;-67
2024/01/08 00:22:35;;;;;;;5.15;3.00;;;3.50;67.80;;;;;;2277401;56;20984;-67
2024/01/08 00:25:02;;;;;;;4.18;2.30;;;3.50;67.90;;;;;;2277413;55;21573;-66
2024/01/08 00:27:29;;;;;;;5.65;3.12;;;3.50;67.90;;;;;;2278096;56;21489;-67
2024/01/08 00:29:55;;;;;;;5.00;2.55;;;3.50;67.90;;;;;;2277540;55;20956;-67
2024/01/08 00:32:24;;;;;;;6.07;3.30;;;3.50;67.90;;;;;;2277448;56;20970;-67
2024/01/08 00:34:50;;;;;;;5.30;2.85;;;3.50;67.90;;;;;;2277581;56;20972;-67
2024/01/08 00:37:17;;;;;;;4.50;2.50;;;3.50;68.00;;;;;;2277252;55;21363;-67
2024/01/08 00:39:43;;;;;;;5.32;2.80;;;3.50;67.90;;;;;;2277314;56;20956;-67
2024/01/08 00:42:10;;;;;;;5.18;2.90;;;3.50;67.90;;;;;;2277184;55;21449;-66
2024/01/08 00:44:39;;;;;;;5.70;3.05;;;3.50;68.00;;;;;;2281354;55;21052;-66
2024/01/08 00:47:05;;;;;;;4.15;2.60;;;3.50;68.00;;;;;;2512179;54;21125;-67
2024/01/08 00:49:31;;;;;;;5.40;3.10;;;3.50;67.90;;;;;;2277639;56;21319;-67
2024/01/08 00:51:59;;;;;;;5.25;3.15;;;3.50;67.90;;;;;;2281097;56;20973;-67
2024/01/08 00:54:28;;;;;;;4.87;2.92;;;3.50;67.80;;;;;;2288376;55;20989;-67
2024/01/08 00:56:54;;;;;;;5.95;3.20;;;3.50;67.80;;;;;;2508682;53;21075;-67
2024/01/08 00:59:20;;;;;;;5.35;3.17;;;3.50;67.90;;;;;;2271041;56;20995;-67
2024/01/08 01:01:46;;;;;;;5.50;3.22;;;3.50;67.80;;;;;;2277766;55;20975;-67
2024/01/08 01:04:13;;;;;;;5.22;2.95;;;3.50;67.80;;;;;;2277359;55;21988;-66
2024/01/08 01:06:41;;;;;;;5.55;3.10;;;3.50;67.80;;;;;;2277809;55;20963;-67
2024/01/08 01:09:07;;;;;;;4.85;3.15;;;3.40;67.70;;;;;;2509614;55;20968;-66
2024/01/08 01:11:34;;;;;;;5.40;3.00;;;3.20;67.40;;;;;;2277549;55;20940;-67
2024/01/08 01:14:00;;;;;;;5.70;3.12;;;3.40;67.70;;;;;;2509884;54;21779;-67
2024/01/08 01:16:29;;;;;;;6.18;3.22;;;3.40;67.70;;;;;;2277608;55;21000;-67
2024/01/08 01:18:59;;;;;;;6.30;3.25;;;3.40;67.60;;;;;;2277612;55;20932;-66
2024/01/08 01:21:27;;;;;;;5.90;2.97;;;3.40;67.80;;;;;;2277588;56;21244;-67
2024/01/08 01:23:55;;;;;;;5.43;3.12;;;3.40;67.70;;;;;;2511243;54;20950;-67
2024/01/08 01:26:21;;;;;;;5.03;2.60;;;3.30;67.70;;;;;;2278812;55;21109;-67
2024/01/08 01:28:47;;;;;;;6.50;3.08;;;3.30;67.60;;;;;;2277957;55;21813;-67
2024/01/08 01:31:15;;;;;;;5.97;3.00;;;3.30;67.60;;;;;;2281606;56;22417;-67
2024/01/08 01:33:42;;;;;;;5.62;2.80;;;3.30;67.70;;;;;;2288401;54;21047;-67
2024/01/08 01:36:08;;;;;;;5.53;3.25;;;3.30;67.70;;;;;;2291797;55;21502;-68
2024/01/08 01:38:36;;;;;;;4.90;2.67;;;3.30;67.70;;;;;;2293953;55;21474;-67
2024/01/08 01:41:02;;;;;;;5.50;2.90;;;3.30;67.70;;;;;;2281999;54;21063;-67
2024/01/08 01:43:32;;;;;;;4.97;2.87;;;3.30;67.70;;;;;;2281214;56;20962;-68
2024/01/08 01:46:04;;;;;;;5.05;2.72;;;3.30;67.80;;;;;;2279069;55;20991;-67
2024/01/08 01:48:30;;;;;;;8.05;2.55;;;3.30;67.70;;;;;;2508633;54;21000;-67
2024/01/08 01:50:57;;;;;;;5.30;3.00;;;3.30;67.70;;;;;;2509163;54;20928;-67
2024/01/08 01:53:24;;;;;;;5.37;3.00;;;3.30;67.80;;;;;;2280808;56;21411;-67
2024/01/08 01:55:50;;;;;;;4.87;2.80;;;3.30;67.80;;;;;;2530192;54;20973;-67
2024/01/08 01:58:16;;;;;;;4.95;2.80;;;3.30;67.90;;;;;;2277758;54;21799;-67
2024/01/08 02:00:42;;;;;;;4.62;2.70;;;3.30;67.90;;;;;;2277134;56;21027;-67
2024/01/08 02:03:09;;;;;;;6.18;2.83;;;3.30;68.00;;;;;;2276921;55;20980;-66
2024/01/08 02:05:36;;;;;;;4.97;2.90;;;3.30;67.90;;;;;;2276952;56;21004;-67
2024/01/08 02:08:04;;;;;;;4.72;2.45;;;3.30;67.80;;;;;;2277024;55;20960;-68
2024/01/08 02:10:31;;;;;;;5.10;2.90;;;3.30;67.80;;;;;;2277283;55;20948;-66
2024/01/08 02:12:58;;;;;;;5.32;2.70;;;3.30;67.70;;;;;;2509135;54;20981;-67
2024/01/08 02:15:25;;;;;;;5.37;2.83;;;3.30;67.70;;;;;;2282141;54;20970;-67
2024/01/08 02:17:51;;;;;;;4.97;2.65;;;3.30;67.80;;;;;;2279703;54;21437;-68
2024/01/08 02:20:18;;;;;;;4.47;2.47;;;3.40;67.90;;;;;;2276547;55;21051;-67
2024/01/08 02:22:44;;;;;;;4.55;2.53;;;3.30;67.70;;;;;;2509897;54;20992;-66
2024/01/08 02:25:11;;;;;;;4.45;2.53;;;3.40;67.80;;;;;;2509584;54;20996;-66
2024/01/08 02:27:37;;;;;;;4.97;2.60;;;3.40;67.90;;;;;;2278981;56;21004;-67
2024/01/08 02:30:04;;;;;;;4.68;2.80;;;3.40;67.90;;;;;;2295035;55;20980;-66
2024/01/08 02:32:31;;;;;;;5.28;2.55;;;3.40;68.00;;;;;;2517004;53;20949;-67
2024/01/08 02:34:57;;;;;;;4.57;2.50;;;3.40;68.00;;;;;;2282802;55;21010;-67
2024/01/08 02:37:24;;;;;;;4.18;2.30;;;3.40;68.00;;;;;;2291411;55;21315;-67
2024/01/08 02:39:51;;;;;;;4.72;2.72;;;3.40;68.00;;;;;;2277385;55;21004;-67
2024/01/08 02:42:18;;;;;;;4.45;2.58;;;3.50;68.00;;;;;;2277193;56;20976;-67
2024/01/08 02:44:46;;;;;;;5.37;2.67;;;3.50;67.90;;;;;;2277814;55;20991;-67
2024/01/08 02:47:12;;;;;;;5.65;2.83;;;3.50;67.90;;;;;;2276828;55;20956;-67
2024/01/08 02:49:38;;;;;;;5.57;2.67;;;3.50;67.90;;;;;;2277461;55;20976;-66
2024/01/08 02:52:05;;;;;;;4.97;3.00;;;3.50;67.90;;;;;;2509346;54;20988;-67
2024/01/08 02:54:32;;;;;;;4.70;2.95;;;3.50;67.90;;;;;;2277534;56;21035;-67
2024/01/08 02:56:59;;;;;;;4.85;2.50;;;3.50;68.00;;;;;;2277824;56;20940;-67
2024/01/08 02:59:25;;;;;;;4.75;2.40;;;3.60;68.10;;;;;;2280885;56;21838;-67
2024/01/08 03:01:52;;;;;;;5.12;2.65;;;3.50;68.00;;;;;;2279808;55;21419;-67
2024/01/08 03:04:18;;;;;;;4.97;2.90;;;3.60;68.00;;;;;;2277356;56;21686;-67
2024/01/08 03:06:45;;;;;;;4.37;2.50;;;3.60;68.00;;;;;;2277424;55;21757;-67
2024/01/08 03:09:11;;;;;;;4.80;3.05;;;3.60;68.60;;;;;;2277129;56;21901;-67
2024/01/08 03:11:38;;;;;;;5.55;3.12;;;3.60;67.90;;;;;;2278276;55;20924;-68
2024/01/08 03:14:04;;;;;;;4.30;2.47;;;3.60;67.90;;;;;;2276904;56;21449;-67
2024/01/08 03:16:31;;;;;;;5.57;3.05;;;3.60;67.90;;;;;;2292255;55;21043;-67
2024/01/08 03:18:58;;;;;;;5.18;2.53;;;3.60;67.90;;;;;;2278012;54;21044;-66
2024/01/08 03:21:24;;;;;;;5.15;2.92;;;3.70;68.00;;;;;;2277041;55;21008;-67
2024/01/08 03:23:51;;;;;;;5.05;2.80;;;3.60;67.90;;;;;;2278029;55;21406;-67
2024/01/08 03:26:17;;;;;;;4.43;2.60;;;3.70;68.00;;;;;;2277087;56;21028;-66
2024/01/08 03:28:44;;;;;;;7.12;3.30;;;3.70;68.00;;;;;;2278097;56;20957;-68
2024/01/08 03:31:10;;;;;;;5.60;3.50;;;3.70;68.00;;;;;;2277248;56;21919;-67
2024/01/08 03:33:37;;;;;;;5.50;2.90;;;3.70;68.00;;;;;;2278556;56;20972;-67
2024/01/08 03:36:08;;;;;;;4.60;2.80;;;3.70;68.00;;;;;;2510012;55;20960;-66
2024/01/08 03:38:34;;;;;;;5.03;2.78;;;3.70;68.00;;;;;;2510440;55;20996;-67
2024/01/08 03:41:00;;;;;;;4.80;2.62;;;3.70;67.90;;;;;;2508873;55;20956;-67
2024/01/08 03:43:27;;;;;;;5.12;2.67;;;3.70;67.90;;;;;;2277888;56;21818;-68
2024/01/08 03:45:54;;;;;;;5.05;2.62;;;3.70;67.90;;;;;;2284344;54;21029;-66
2024/01/08 03:48:21;;;;;;;4.93;2.83;;;3.70;67.80;;;;;;2276736;55;20964;-66
2024/01/08 03:50:47;;;;;;;7.72;3.10;;;3.70;68.60;;;;;;2281029;54;20966;-67
2024/01/08 03:53:15;;;;;;;5.93;2.58;;;3.80;67.90;;;;;;2279803;55;20956;-67
2024/01/08 03:55:41;;;;;;;5.65;3.05;;;3.80;68.00;;;;;;2281575;55;20970;-67
2024/01/08 03:58:08;;;;;;;6.55;2.75;;;3.80;67.90;;;;;;2279043;55;21067;-67
2024/01/08 04:00:34;;;;;;;5.55;3.17;;;3.80;67.90;;;;;;2508398;54;20948;-67
2024/01/08 04:03:00;;;;;;;4.90;3.10;;;3.80;67.80;;;;;;2509819;54;21049;-67
2024/01/08 04:05:27;;;;;;;5.15;3.30;;;3.80;67.80;;;;;;2277254;56;21023;-67
2024/01/08 04:07:53;;;;;;;5.37;2.80;;;3.80;67.70;;;;;;2277877;56;21048;-67
2024/01/08 04:10:20;;;;;;;5.30;3.00;;;3.80;67.70;;;;;;2277589;56;20968;-67
2024/01/08 04:12:46;;;;;;;4.25;2.55;;;3.80;67.70;;;;;;2281549;55;20979;-66
2024/01/08 04:15:13;;;;;;;5.43;2.92;;;3.80;67.70;;;;;;2517910;53;20946;-67
2024/01/08 04:17:40;;;;;;;4.30;2.50;;;3.80;67.50;;;;;;2278007;54;21039;-68
2024/01/08 04:20:08;;;;;;;5.65;2.95;;;3.80;67.40;;;;;;2509885;55;21064;-67
2024/01/08 04:22:34;;;;;;;5.32;2.92;;;3.80;67.40;;;;;;2508957;54;21004;-67
2024/01/08 04:25:00;;;;;;;4.90;2.87;;;3.80;67.30;;;;;;2277363;56;21020;-67
2024/01/08 04:27:27;;;;;;;4.20;2.47;;;3.80;67.30;;;;;;2509654;55;21372;-67
2024/01/08 04:29:53;;;;;;;5.40;3.05;;;3.70;67.90;;;;;;2277626;55;21047;-67
2024/01/08 04:32:19;;;;;;;4.80;2.80;;;3.70;67.30;;;;;;2277210;55;21017;-67
2024/01/08 04:34:46;;;;;;;5.00;2.80;;;3.70;67.30;;;;;;2277679;56;20968;-66
2024/01/08 04:37:12;;;;;;;6.00;3.28;;;3.70;67.30;;;;;;2276919;55;20959;-67
2024/01/08 04:39:39;;;;;;;5.15;2.70;;;3.70;67.30;;;;;;2510195;54;20960;-66
2024/01/08 04:42:06;;;;;;;5.40;2.70;;;3.70;67.40;;;;;;2277372;55;20968;-67
2024/01/08 04:44:32;;;;;;;4.75;2.53;;;3.70;67.50;;;;;;2509373;55;21095;-67
2024/01/08 04:46:59;;;;;;;4.53;2.58;;;3.70;67.50;;;;;;2509826;55;20956;-67
2024/01/08 04:49:26;;;;;;;4.78;2.60;;;3.70;67.50;;;;;;2277158;56;21425;-67
2024/01/08 04:51:52;;;;;;;4.28;2.50;;;3.70;67.40;;;;;;2509984;54;20948;-67
2024/01/08 04:54:19;;;;;;;5.78;3.00;;;3.70;67.40;;;;;;2509359;54;21749;-66
2024/01/08 04:56:47;;;;;;;4.65;2.53;;;3.70;67.30;;;;;;2280376;55;20949;-67
2024/01/08 04:59:13;;;;;;;4.93;2.58;;;3.70;67.30;;;;;;2276499;56;21016;-68
2024/01/08 05:01:40;;;;;;;3.62;2.25;;;3.70;67.30;;;;;;2510082;55;20940;-66
2024/01/08 05:04:06;;;;;;;4.93;2.92;;;3.70;67.30;;;;;;2509470;55;20953;-66
2024/01/08 05:06:37;;;;;;;5.10;2.83;;;3.70;67.30;;;;;;2276953;55;20937;-66
2024/01/08 05:09:03;;;;;;;4.82;2.53;;;3.70;67.20;;;;;;2513047;53;21037;-66
2024/01/08 05:11:30;;;;;;;5.10;2.45;;;3.70;67.20;;;;;;2510046;54;21209;-67
2024/01/08 05:13:57;;;;;;;4.43;2.87;;;3.70;67.10;;;;;;2295252;54;20978;-66
2024/01/08 05:16:23;;;;;;;4.75;2.65;;;3.70;67.20;;;;;;2295450;55;20941;-67
2024/01/08 05:18:50;;;;;;;5.20;2.85;;;3.70;67.00;;;;;;2276959;56;20936;-66
2024/01/08 05:21:16;;;;;;;6.10;2.60;;;3.60;67.00;;;;;;2276989;55;20944;-66
2024/01/08 05:23:42;;;;;;;5.90;3.40;;;3.60;67.10;;;;;;2276990;56;21778;-68
2024/01/08 05:26:09;;;;;;;6.18;3.80;;;3.60;67.10;;;;;;2277253;55;21016;-66
2024/01/08 05:28:39;;;;;;;5.85;3.47;;;3.60;67.10;;;;;;2276522;56;21021;-67
2024/01/08 05:31:05;;;;;;;5.60;3.40;;;3.60;67.00;;;;;;2277113;55;20920;-67
2024/01/08 05:33:31;;;;;;;5.97;3.47;;;3.60;66.90;;;;;;2277127;55;21434;-66
2024/01/08 05:35:58;;;;;;;5.50;3.22;;;3.60;67.00;;;;;;2277355;55;21034;-67
2024/01/08 05:38:25;;;;;;;5.80;2.92;;;3.60;67.00;;;;;;2509092;54;21072;-67
2024/01/08 05:40:55;;;;;;;4.70;2.85;;;3.60;67.10;;;;;;2509344;54;20988;-67
2024/01/08 05:43:22;;;;;;;4.95;2.83;;;3.60;67.70;;;;;;2508749;54;21075;-66
2024/01/08 05:45:49;;;;;;;5.03;3.08;;;3.60;67.00;;;;;;2509296;54;21087;-67
2024/01/08 05:48:16;;;;;;;5.18;3.12;;;3.60;67.10;;;;;;2509770;54;20920;-68
2024/01/08 05:50:42;;;;;;;5.53;3.25;;;3.60;67.10;;;;;;2508814;55;20995;-66
2024/01/08 05:53:08;;;;;;;5.07;3.30;;;3.60;67.00;;;;;;2277090;56;20924;-66
2024/01/08 05:55:34;;;;;;;5.50;3.00;;;3.60;67.00;;;;;;2277432;55;21485;-67
2024/01/08 05:58:01;;;;;;;4.32;2.85;;;3.60;67.10;;;;;;2277632;55;21024;-67
2024/01/08 06:00:27;;;;;;;4.50;2.70;;;3.60;67.10;;;;;;2277055;55;21000;-67
2024/01/08 06:02:53;;;;;;;4.53;2.60;;;3.60;67.10;;;;;;2510737;54;21021;-67
2024/01/08 06:05:20;;;;;;;5.45;2.67;;;3.60;67.10;;;;;;2278778;54;21397;-68
2024/01/08 06:07:48;;;;;;;4.60;2.85;;;3.60;67.10;;;;;;2277430;56;20969;-67
2024/01/08 06:10:15;;;;;;;4.90;2.55;;;3.60;67.10;;;;;;2509035;54;20956;-67
2024/01/08 06:12:41;;;;;;;5.93;3.53;;;3.60;67.20;;;;;;2277281;56;20996;-67
2024/01/08 06:15:08;;;;;;;5.50;3.00;;;3.60;67.20;;;;;;2509729;54;20996;-67
2024/01/08 06:17:35;;;;;;;5.00;3.15;;;3.60;67.20;;;;;;2281723;55;21033;-67
2024/01/08 06:20:01;;;;;;;4.80;2.90;;;3.60;68.00;;;;;;2511329;53;20968;-67
2024/01/08 06:22:28;;;;;;;4.62;2.83;;;3.60;67.20;;;;;;2508756;55;20975;-67
2024/01/08 06:24:58;;;;;;;5.40;3.15;;;3.60;67.20;;;;;;2276747;55;20975;-66
2024/01/08 06:27:25;;;;;;;4.93;3.22;;;3.60;67.10;;;;;;2277245;55;21004;-67
2024/01/08 06:29:51;;;;;;;5.65;3.20;;;3.70;67.30;;;;;;2292102;55;20963;-66
2024/01/08 06:32:17;;;;;;;4.82;3.08;;;3.70;67.30;;;;;;2281510;55;20944;-67
2024/01/08 06:34:45;;;;;;;4.90;2.90;;;3.70;67.20;;;;;;2504823;55;20951;-67
2024/01/08 06:37:15;;;;;;;4.30;2.80;;;3.70;67.30;;;;;;2505857;54;21016;-67
2024/01/08 06:39:41;;;;;;;6.05;2.95;;;3.70;67.20;;;;;;2509863;55;21493;-67
2024/01/08 06:42:08;;;;;;;5.25;3.20;;;3.70;67.30;;;;;;2277527;55;20995;-66
2024/01/08 06:44:34;;;;;;;6.65;3.50;;;3.70;67.30;;;;;;2509115;54;21797;-66
2024/01/08 06:47:00;;;;;;;5.90;3.05;;;3.70;67.30;;;;;;2277521;56;21081;-67
2024/01/08 06:49:27;;;;;;;7.78;4.53;;;3.70;67.30;;;;;;2281883;56;21774;-67
2024/01/08 06:51:53;;;;;;;5.72;3.30;;;3.70;67.30;;;;;;2512747;53;20988;-67
2024/01/08 06:54:20;;;;;;;5.72;2.97;;;3.70;67.30;;;;;;2277559;56;21047;-67
2024/01/08 06:56:46;;;;;;;6.28;3.20;;;3.70;67.30;;;;;;2277399;56;21031;-67
2024/01/08 06:59:18;;;;;;;5.43;3.15;;;3.70;67.30;;;;;;2509838;54;20944;-67
2024/01/08 07:01:45;;;;;;;5.37;2.95;;;3.70;67.30;;;;;;2509734;55;21081;-67
2024/01/08 07:04:12;;;;;;;4.93;2.87;;;3.70;67.20;;;;;;2282957;55;21010;-67
2024/01/08 07:06:41;;;;;;;5.68;3.53;;;3.70;67.30;;;;;;2277571;54;21028;-66
2024/01/08 07:09:08;;;;;;;5.55;3.20;;;3.80;67.30;;;;;;2276828;55;21066;-67
2024/01/08 07:11:34;;;;;;;4.93;2.87;;;3.80;67.30;;;;;;2277431;56;21831;-66
2024/01/08 07:14:00;;;;;;;5.35;3.03;;;3.80;67.30;;;;;;2277263;55;21039;-66
2024/01/08 07:16:28;;;;;;;4.97;2.90;;;3.80;67.30;;;;;;2277098;56;21346;-67
2024/01/08 07:18:54;;;;;;;7.50;5.18;;;3.80;67.30;;;;;;2277325;56;21040;-67
2024/01/08 07:21:22;;;;;;;6.00;4.15;;;3.80;67.30;;;;;;2277094;55;20960;-67
2024/01/08 07:23:50;;;;;;;6.15;4.40;;;3.80;67.30;;;;;;2282554;55;21005;-66
2024/01/08 07:26:19;;;;;;;6.68;4.40;;;3.80;67.30;;;;;;2511826;54;21039;-67
2024/01/08 07:28:56;;;;;;;5.10;3.22;;;3.80;67.20;;;;;;2509477;55;21783;-67
2024/01/08 07:31:25;;;;;;;5.53;3.22;;;3.80;67.30;;;;;;2276637;56;20992;-67
2024/01/08 07:33:52;;;;;;;4.70;3.05;;;3.80;67.30;;;;;;2276626;55;21012;-67
2024/01/08 07:36:20;;;;;;;8.38;7.20;;;3.80;67.30;;;;;;2509719;54;20956;-67
2024/01/08 07:38:46;;;;;;;6.00;4.40;;;3.80;67.30;;;;;;2509303;54;21016;-67
2024/01/08 07:41:13;;;;;;;4.97;3.35;;;3.80;67.30;;;;;;2276159;55;21113;-67
2024/01/08 07:43:40;;;;;;;4.55;3.10;;;3.80;67.30;;;;;;2508337;54;21317;-66
2024/01/08 07:46:06;;;;;;;5.15;3.25;;;3.80;67.30;;;;;;2509580;54;21441;-67
2024/01/08 07:48:32;;;;;;;5.20;3.12;;;3.80;67.30;;;;;;2283103;55;20942;-67
2024/01/08 07:51:00;;;;;;;5.80;3.10;;;3.90;67.40;;;;;;2278234;55;21031;-67
2024/01/08 07:53:26;;;;;;;6.55;3.12;;;3.80;67.30;;;;;;2510139;53;20994;-67
2024/01/08 07:55:53;;;;;;;6.25;3.15;;;3.80;67.40;;;;;;2283318;55;20990;-67
2024/01/08 07:58:19;;;;;;;6.47;3.55;;;3.90;67.50;;;;;;2512265;54;20961;-67
2024/01/08 08:00:47;;;;;;;6.15;3.10;;;3.90;67.60;;;;;;2281551;55;20966;-67
2024/01/08 08:03:13;;;;;;;5.28;3.42;;;3.90;67.60;;;;;;2279021;54;20948;-67
2024/01/08 08:05:40;;;;;;;6.20;3.75;;;3.90;67.50;;;;;;2509129;55;21084;-66
2024/01/08 08:08:06;;;;;;;5.12;3.15;;;3.90;67.50;;;;;;2277005;55;21940;-66
2024/01/08 08:10:33;;;;;;;5.53;3.58;;;3.90;67.40;;;;;;2509916;54;20960;-66
2024/01/08 08:13:01;;;;;;;6.12;3.67;;;3.90;67.40;;;;;;2277189;55;20940;-66
2024/01/08 08:15:27;;;;;;;5.78;3.70;;;3.90;67.40;;;;;;2509047;54;21004;-67
2024/01/08 08:17:54;;;;;;;5.72;3.40;;;3.90;67.20;;;;;;2277490;56;21492;-67
2024/01/08 08:20:22;;;;;;;5.07;3.45;;;3.90;67.80;;;;;;2277124;56;20977;-67
2024/01/08 08:22:49;;;;;;;5.70;3.47;;;3.90;66.90;;;;;;2277265;56;21066;-66
2024/01/08 08:25:17;;;;;;;6.45;3.95;;;3.90;66.90;;;;;;2277302;56;21091;-67
2024/01/08 08:27:44;;;;;;;5.87;3.37;;;3.90;67.60;;;;;;2509646;55;20953;-66
2024/01/08 08:30:12;;;;;;;6.05;3.47;;;3.90;67.00;;;;;;2277903;55;21052;-67
2024/01/08 08:32:39;;;;;;;5.87;3.37;;;3.90;67.00;;;;;;2296450;55;21134;-67
2024/01/08 08:35:08;;;;;;;5.97;3.58;;;3.90;66.90;;;;;;2280633;55;21264;-66
2024/01/08 08:37:36;;;;;;;5.87;3.20;;;3.90;66.90;;;;;;2277187;56;20943;-66
2024/01/08 08:40:05;;;;;;;6.25;3.70;;;3.90;67.00;;;;;;2509601;54;20971;-66
2024/01/08 08:42:32;;;;;;;5.40;3.25;;;3.90;67.00;;;;;;2277488;56;20972;-68
2024/01/08 08:45:00;;;;;;;6.12;3.37;;;3.90;67.00;;;;;;2276689;56;21028;-67
2024/01/08 08:47:26;;;;;;;5.22;3.47;;;3.90;67.00;;;;;;2281368;55;21014;-67
2024/01/08 08:49:54;;;;;;;5.53;3.30;;;3.90;67.00;;;;;;2288910;54;21333;-67
2024/01/08 08:52:20;;;;;;;5.30;3.40;;;3.90;67.00;;;;;;2277513;55;21011;-66
2024/01/08 08:54:46;;;;;;;5.85;3.22;;;3.90;67.00;;;;;;2282622;54;21018;-67
2024/01/08 08:57:12;;;;;;;5.55;3.00;;;3.90;66.90;;;;;;2512566;54;21831;-67
2024/01/08 08:59:40;;;;;;;5.43;3.12;;;3.90;67.00;;;;;;2510063;54;21015;-66
2024/01/08 09:02:06;;;;;;;4.82;3.05;;;3.90;67.10;;;;;;2508585;54;20972;-67
2024/01/08 09:04:32;;;;;;;5.75;3.42;;;3.90;67.10;;;;;;2509437;55;20972;-66
2024/01/08 09:06:59;;;;;;;5.35;3.30;;;3.90;67.10;;;;;;2276836;55;22001;-67
2024/01/08 09:09:25;;;;;;;6.32;3.55;;;3.90;67.10;;;;;;2487349;55;20937;-68
2024/01/08 09:11:55;;;;;;;6.97;3.28;;;3.90;67.10;;;;;;2282363;55;21024;-66
2024/01/08 09:14:21;;;;;;;6.40;3.45;;;4.00;67.20;;;;;;2509072;54;21083;-66
2024/01/08 09:16:47;;;;;;;4.87;3.08;;;4.00;67.20;;;;;;2277353;56;20960;-67
2024/01/08 09:19:18;;;;;;;6.68;3.45;;;4.00;67.20;;;;;;2277394;55;20956;-66
2024/01/08 09:21:47;;;;;;;6.45;3.70;;;4.00;67.10;;;;;;2509469;54;21067;-67
2024/01/08 09:24:16;;;;;;;6.32;3.58;;;4.00;67.00;;;;;;2276780;55;20962;-67
2024/01/08 09:26:43;;;;;;;5.55;3.17;;;4.00;66.90;;;;;;2277149;56;21536;-67
2024/01/08 09:29:09;;;;;;;5.25;3.22;;;4.00;67.00;;;;;;2277284;55;21536;-67
2024/01/08 09:31:35;;;;;;;5.93;3.25;;;4.00;66.90;;;;;;2277986;55;21499;-67
2024/01/08 09:34:02;;;;;;;5.90;3.20;;;4.10;67.10;;;;;;2277765;55;20947;-66
2024/01/08 09:36:28;;;;;;;5.75;3.30;;;4.10;67.20;;;;;;2277509;56;20925;-68
2024/01/08 09:38:54;;;;;;;5.45;2.92;;;4.10;67.10;;;;;;2276777;56;21292;-67
2024/01/08 09:41:22;;;;;;;5.30;3.00;;;4.10;67.20;;;;;;2277260;55;21008;-66
2024/01/08 09:43:59;;;;;;;5.57;3.30;;;4.10;67.30;;;;;;2511036;53;21664;-67
2024/01/08 09:46:30;;;;;;;5.37;3.10;;;4.10;67.20;;;;;;2289874;54;21481;-67
2024/01/08 09:48:56;;;;;;;5.30;2.90;;;4.20;67.20;;;;;;2292714;55;21001;-67
2024/01/08 09:51:23;;;;;;;5.37;3.10;;;4.20;67.20;;;;;;2279509;55;21011;-66
2024/01/08 09:53:52;;;;;;;4.28;2.67;;;4.20;67.10;;;;;;2276780;55;21810;-67
2024/01/08 09:56:20;;;;;;;4.97;2.80;;;4.20;67.00;;;;;;2277548;56;21827;-66
2024/01/08 09:58:46;;;;;;;5.00;3.00;;;4.20;67.00;;;;;;2509271;54;21420;-67
2024/01/08 10:01:12;;;;;;;5.55;3.15;;;4.30;67.00;;;;;;2509253;54;20949;-67
2024/01/08 10:03:39;;;;;;;5.55;3.00;;;4.30;67.00;;;;;;2277535;56;20996;-67
2024/01/08 10:06:07;;;;;;;4.93;2.80;;;4.30;67.10;;;;;;2509309;54;21639;-67
2024/01/08 10:08:33;;;;;;;5.07;3.00;;;4.30;67.00;;;;;;2284017;55;21304;-67
2024/01/08 10:11:00;;;;;;;6.15;3.20;;;4.30;67.00;;;;;;2277836;54;20956;-67
2024/01/08 10:13:28;;;;;;;5.72;2.95;;;4.40;67.00;;;;;;2276921;55;20960;-67
2024/01/08 10:15:55;;;;;;;5.25;2.60;;;4.40;67.00;;;;;;2509091;54;20957;-66
2024/01/08 10:18:23;;;;;;;4.43;2.58;;;4.40;67.00;;;;;;2509003;54;21008;-68
2024/01/08 10:21:06;;;;;;;4.85;2.80;;;4.40;66.80;;;;;;2509040;54;21465;-66
2024/01/08 10:23:32;;;;;;;5.07;2.33;;;4.40;66.80;;;;;;2276705;55;21008;-67
2024/01/08 10:25:59;;;;;;;4.50;2.80;;;4.40;66.80;;;;;;2507924;54;21013;-67
2024/01/08 10:28:25;;;;;;;5.25;3.00;;;4.40;66.80;;;;;;2278469;55;21016;-67
2024/01/08 10:30:56;;;;;;;5.07;2.75;;;4.50;66.80;;;;;;2277176;55;20979;-67
2024/01/08 10:33:24;;;;;;;5.97;3.10;;;4.50;66.70;;;;;;2277321;55;21810;-67
2024/01/08 10:35:51;;;;;;;5.47;3.00;;;4.50;66.60;;;;;;2277744;56;20984;-67
2024/01/08 10:38:20;;;;;;;5.20;3.20;;;4.50;66.50;;;;;;2510144;54;20966;-67
2024/01/08 10:40:46;;;;;;;4.95;2.87;;;4.50;66.50;;;;;;2282638;55;21138;-66
2024/01/08 10:43:12;;;;;;;6.50;3.72;;;4.50;66.50;;;;;;2511618;54;21691;-68
2024/01/08 10:45:38;;;;;;;6.43;3.42;;;4.50;66.60;;;;;;2510151;54;21016;-67
2024/01/08 10:48:11;;;;;;;6.57;3.50;;;4.50;66.60;;;;;;2276971;56;22100;-67
2024/01/08 10:50:40;;;;;;;5.12;3.03;;;4.50;66.40;;;;;;2487978;55;20984;-67
2024/01/08 10:53:11;;;;;;;5.57;3.10;;;4.50;66.50;;;;;;2277195;55;20960;-67
2024/01/08 10:55:37;;;;;;;5.75;2.95;;;4.60;66.70;;;;;;2292269;55;21316;-67
2024/01/08 10:58:07;;;;;;;5.50;2.95;;;4.60;66.50;;;;;;2276638;55;20940;-68
2024/01/08 11:00:34;;;;;;;5.30;2.97;;;4.60;66.60;;;;;;2279933;55;21340;-67
2024/01/08 11:03:00;;;;;;;5.75;2.80;;;4.60;66.60;;;;;;2509554;55;20980;-67
2024/01/08 11:05:27;;;;;;;5.40;3.05;;;4.60;66.50;;;;;;2277130;56;20987;-67
2024/01/08 11:07:53;;;;;;;5.35;2.97;;;4.60;66.50;;;;;;2508998;54;21441;-68
2024/01/08 11:10:24;;;;;;;4.82;2.80;;;4.60;66.40;;;;;;2508777;54;21008;-67
2024/01/08 11:12:53;;;;;;;4.65;2.90;;;4.60;66.30;;;;;;2509394;54;21004;-67
2024/01/08 11:15:19;;;;;;;4.85;2.85;;;4.60;66.30;;;;;;2509331;54;20980;-67
2024/01/08 11:17:52;;;;;;;4.95;2.70;;;4.60;66.30;;;;;;2510104;54;20997;-67
2024/01/08 11:20:43;;;;;;;6.05;3.20;;;4.60;66.20;;;;;;2277932;56;21781;-67
2024/01/08 11:23:35;;;;;;;5.47;3.00;;;4.70;65.70;;;;;;2276877;56;21785;-67
2024/01/08 11:26:18;;;;;;;5.65;3.03;;;4.70;65.60;;;;;;2282874;55;20961;-67
2024/01/08 11:29:00;;;;;;;5.25;3.20;;;4.70;65.90;;;;;;2278460;55;21445;-67
2024/01/08 11:33:08;;;;;;;5.73;3.23;;;4.60;65.60;;;;;;2281737;56;21461;-67
2024/01/08 11:35:41;;;;;;;5.45;3.15;;;4.70;66.00;;;;;;2277533;55;20984;-67
2024/01/08 11:38:27;;;;;;;6.45;3.70;;;4.70;66.20;;;;;;2280276;55;20976;-68
2024/01/08 11:40:56;;;;;;;5.53;3.12;;;4.70;65.90;;;;;;2511605;53;20953;-66
2024/01/08 11:43:22;;;;;;;5.85;3.40;;;4.70;66.30;;;;;;2277212;55;21341;-67
2024/01/08 11:45:49;;;;;;;4.82;3.00;;;4.70;66.40;;;;;;2277780;55;20972;-67
2024/01/08 11:48:16;;;;;;;4.78;2.90;;;4.60;66.30;;;;;;2277365;56;21437;-67
2024/01/08 11:50:44;;;;;;;7.57;3.85;;;4.60;66.30;;;;;;2277413;56;21991;-67
2024/01/08 11:53:11;;;;;;;6.87;3.75;;;4.60;66.10;;;;;;2276913;55;20967;-67
2024/01/08 11:55:39;;;;;;;6.90;3.80;;;4.70;66.40;;;;;;2276880;56;21445;-67
2024/01/08 11:58:05;;;;;;;6.45;3.30;;;4.70;66.30;;;;;;2508747;54;21498;-67
2024/01/08 12:00:32;;;;;;;6.10;2.90;;;4.60;66.10;;;;;;2277317;55;20952;-68
2024/01/08 12:03:02;;;;;;;6.18;3.40;;;4.70;66.30;;;;;;2277305;56;20995;-68
2024/01/08 12:05:28;;;;;;;6.87;3.30;;;4.70;66.40;;;;;;2509377;55;20980;-67
2024/01/08 12:07:55;;;;;;;7.18;3.62;;;4.70;66.50;;;;;;2277086;55;21405;-67
2024/01/08 12:10:22;;;;;;;7.22;3.33;;;4.70;66.60;;;;;;2277860;55;20991;-67
2024/01/08 12:12:48;;;;;;;5.78;3.22;;;4.70;66.70;;;;;;2262550;56;21603;-68
2024/01/08 12:15:15;;;;;;;5.37;2.95;;;4.80;66.70;;;;;;2277553;56;21020;-68
2024/01/08 12:17:42;;;;;;;5.20;2.83;;;4.80;66.70;;;;;;2277441;56;21024;-67
2024/01/08 12:20:11;;;;;;;6.43;3.08;;;4.80;66.70;;;;;;2277258;55;21280;-67
2024/01/08 12:22:37;;;;;;;4.65;2.72;;;4.80;66.60;;;;;;2277327;55;21779;-66
2024/01/08 12:25:08;;;;;;;4.47;2.53;;;4.90;66.80;;;;;;2277029;56;20988;-67
2024/01/08 12:27:34;;;;;;;5.68;3.22;;;4.80;66.70;;;;;;2277509;56;20976;-67
2024/01/08 12:30:04;;;;;;;4.37;2.75;;;4.90;66.80;;;;;;2509365;54;20953;-68
2024/01/08 12:32:30;;;;;;;5.97;2.80;;;4.90;66.60;;;;;;2283731;55;21734;-68
2024/01/08 12:35:03;;;;;;;5.35;2.83;;;5.00;66.80;;;;;;2277551;55;21019;-67
2024/01/08 12:37:32;;;;;;;5.72;2.62;;;5.00;66.70;;;;;;2276785;55;20972;-67
2024/01/08 12:39:59;;;;;;;4.68;2.87;;;5.00;66.80;;;;;;2283633;55;20946;-67
2024/01/08 12:42:33;;;;;;;5.57;3.00;;;5.00;66.80;;;;;;2278320;56;21036;-67
2024/01/08 12:45:04;;;;;;;5.37;2.87;;;5.10;66.90;;;;;;2510770;54;21011;-67
2024/01/08 12:47:31;;;;;;;5.72;2.97;;;5.10;67.10;;;;;;2292459;54;21021;-67
2024/01/08 12:49:58;;;;;;;4.80;2.60;;;5.10;67.00;;;;;;2276175;56;20960;-67
2024/01/08 12:52:24;;;;;;;5.53;3.12;;;5.20;67.10;;;;;;2509940;54;21036;-68
2024/01/08 12:54:51;;;;;;;5.50;2.90;;;5.20;67.00;;;;;;2277797;55;21004;-67
2024/01/08 12:57:18;;;;;;;5.65;2.92;;;5.20;67.00;;;;;;2283570;55;21479;-67
2024/01/08 12:59:54;;;;;;;5.78;2.92;;;5.20;67.00;;;;;;2509946;54;21014;-67